createdAt,value
2022-07-26T00:00:58.542Z,6.28
2022-07-26T00:03:26.163Z,4.82
2022-07-26T00:05:53.798Z,4.63
2022-07-26T00:08:21.441Z,3.03
2022-07-26T00:10:56.767Z,4.68
2022-07-26T00:13:24.390Z,2.88
2022-07-26T00:15:55.566Z,4.80
2022-07-26T00:18:23.163Z,7.72
2022-07-26T00:20:50.831Z,5.10
2022-07-26T00:23:19.463Z,3.20
2022-07-26T00:25:47.042Z,4.47
2022-07-26T00:28:16.029Z,5.65
2022-07-26T00:30:43.623Z,5.55
2022-07-26T00:33:11.168Z,3.45
2022-07-26T00:35:38.765Z,7.28
2022-07-26T00:38:06.439Z,6.93
2022-07-26T00:40:35.422Z,4.80
2022-07-26T00:43:03.073Z,2.85
2022-07-26T00:45:32.124Z,4.65
2022-07-26T00:47:59.738Z,2.30
2022-07-26T00:50:27.333Z,4.43
2022-07-26T00:52:55.305Z,1.70
2022-07-26T00:55:22.864Z,3.78
2022-07-26T00:57:50.613Z,3.13
2022-07-26T01:00:19.226Z,6.05
2022-07-26T01:02:48.223Z,2.97
2022-07-26T01:05:15.903Z,1.67
2022-07-26T01:07:48.371Z,3.58
2022-07-26T01:10:16.258Z,5.70
2022-07-26T01:12:43.994Z,3.60
2022-07-26T01:15:12.032Z,3.58
2022-07-26T01:17:39.638Z,5.63
2022-07-26T01:20:09.245Z,3.47
2022-07-26T01:22:38.227Z,7.18
2022-07-26T01:25:06.302Z,10.60
2022-07-26T01:27:34.424Z,1.90
2022-07-26T01:30:02.084Z,2.20
2022-07-26T01:32:39.385Z,3.40
2022-07-26T01:35:07.747Z,4.88
2022-07-26T01:37:35.324Z,3.22
2022-07-26T01:40:04.782Z,4.93
2022-07-26T01:42:34.779Z,5.53
2022-07-26T01:45:02.410Z,5.68
2022-07-26T01:47:30.023Z,4.38
2022-07-26T01:49:57.697Z,4.60
2022-07-26T01:52:25.208Z,2.60
2022-07-26T01:54:52.816Z,4.57
2022-07-26T01:57:21.808Z,5.75
2022-07-26T01:59:49.368Z,3.88
2022-07-26T02:02:17.067Z,3.15
2022-07-26T02:04:59.891Z,2.42
2022-07-26T02:07:27.589Z,3.42
2022-07-26T02:09:56.288Z,6.93
2022-07-26T02:12:27.016Z,7.75
2022-07-26T02:14:54.618Z,3.92
2022-07-26T02:17:22.200Z,5.03
2022-07-26T02:19:50.239Z,4.28
2022-07-26T02:22:32.924Z,3.90
2022-07-26T02:25:04.744Z,2.75
2022-07-26T02:27:34.678Z,1.58
2022-07-26T02:30:02.244Z,3.60
2022-07-26T02:32:29.784Z,5.35
2022-07-26T02:34:57.455Z,4.45
2022-07-26T02:37:24.961Z,5.63
2022-07-26T02:39:52.752Z,4.47
2022-07-26T02:42:20.344Z,5.40
2022-07-26T02:44:49.239Z,6.65
2022-07-26T02:47:16.855Z,2.55
2022-07-26T02:49:44.534Z,8.23
2022-07-26T02:52:12.112Z,4.45
2022-07-26T02:54:39.716Z,5.47
2022-07-26T02:57:07.312Z,5.03
2022-07-26T02:59:34.863Z,6.45
2022-07-26T03:02:03.843Z,7.82
2022-07-26T03:04:31.436Z,5.88
2022-07-26T03:06:59.282Z,4.35
2022-07-26T03:09:26.888Z,9.40
2022-07-26T03:11:54.498Z,5.70
2022-07-26T03:14:22.103Z,6.68
2022-07-26T03:16:49.681Z,5.22
2022-07-26T03:19:18.677Z,7.43
2022-07-26T03:21:46.200Z,4.97
2022-07-26T03:24:14.075Z,6.32
2022-07-26T03:26:41.625Z,3.90
2022-07-26T03:29:09.272Z,5.93
2022-07-26T03:31:36.915Z,5.13
2022-07-26T03:34:04.849Z,3.95
2022-07-26T03:36:57.909Z,2.92
2022-07-26T03:39:27.037Z,8.60
2022-07-26T03:41:54.655Z,3.67
2022-07-26T03:44:22.219Z,5.47
2022-07-26T03:46:49.951Z,5.20
2022-07-26T03:49:17.657Z,4.68
2022-07-26T03:51:45.276Z,7.30
2022-07-26T03:54:12.955Z,7.50
2022-07-26T03:56:51.195Z,6.35
2022-07-26T03:59:20.217Z,6.68
2022-07-26T04:01:48.091Z,6.00
2022-07-26T04:04:17.804Z,4.63
2022-07-26T04:06:45.458Z,7.50
2022-07-26T04:09:13.045Z,6.85
2022-07-26T04:11:41.211Z,4.85
2022-07-26T04:14:09.302Z,8.70
2022-07-26T04:16:43.274Z,5.50
2022-07-26T04:19:11.439Z,5.63
2022-07-26T04:21:39.005Z,6.68
2022-07-26T04:24:07.198Z,8.10
2022-07-26T04:26:34.929Z,6.10
2022-07-26T04:29:02.530Z,9.20
2022-07-26T04:31:36.212Z,7.32
2022-07-26T04:34:05.872Z,7.40
2022-07-26T04:36:33.970Z,5.30
2022-07-26T04:39:01.566Z,5.28
2022-07-26T04:41:29.251Z,6.97
2022-07-26T04:43:58.033Z,7.07
2022-07-26T04:46:26.109Z,6.10
2022-07-26T04:48:53.852Z,7.03
2022-07-26T04:51:22.869Z,4.57
2022-07-26T04:53:50.938Z,5.10
2022-07-26T04:56:18.537Z,8.20
2022-07-26T04:58:52.078Z,10.50
2022-07-26T05:01:19.748Z,4.85
2022-07-26T05:03:47.444Z,5.68
2022-07-26T05:06:14.982Z,7.32
2022-07-26T05:08:44.109Z,8.80
2022-07-26T05:11:11.719Z,5.32
2022-07-26T05:13:39.375Z,13.18
2022-07-26T05:16:11.967Z,7.15
2022-07-26T05:18:45.528Z,5.30
2022-07-26T05:21:17.333Z,4.53
2022-07-26T05:23:46.348Z,5.60
2022-07-26T05:26:13.972Z,6.40
2022-07-26T05:28:41.793Z,9.05
2022-07-26T05:31:09.436Z,8.52
2022-07-26T05:33:37.114Z,7.15
2022-07-26T05:36:04.965Z,11.40
2022-07-26T05:38:32.548Z,8.63
2022-07-26T05:41:01.585Z,7.60
2022-07-26T05:43:41.304Z,8.20
2022-07-26T05:46:10.170Z,10.38
2022-07-26T05:48:37.913Z,6.57
2022-07-26T05:51:05.645Z,10.15
2022-07-26T05:53:33.214Z,9.68
2022-07-26T05:56:02.441Z,8.70
2022-07-26T05:58:30.070Z,6.90
2022-07-26T06:00:57.764Z,5.30
2022-07-26T06:03:25.894Z,9.57
2022-07-26T06:05:54.126Z,6.53
2022-07-26T06:08:21.904Z,9.50
2022-07-26T06:10:49.645Z,9.35
2022-07-26T06:13:18.832Z,10.00
2022-07-26T06:15:46.550Z,9.80
2022-07-26T06:18:14.202Z,8.30
2022-07-26T06:20:41.773Z,9.88
2022-07-26T06:23:09.455Z,13.02
2022-07-26T06:25:37.035Z,9.45
2022-07-26T06:28:04.769Z,9.20
2022-07-26T06:30:33.717Z,14.20
2022-07-26T06:33:01.309Z,8.65
2022-07-26T06:35:30.909Z,9.73
2022-07-26T06:37:58.644Z,9.20
2022-07-26T06:40:26.611Z,7.90
2022-07-26T06:42:54.333Z,9.98
2022-07-26T06:45:22.080Z,8.57
2022-07-26T06:47:51.125Z,17.40
2022-07-26T06:50:20.767Z,16.77
2022-07-26T06:52:53.347Z,14.05
2022-07-26T06:55:21.125Z,13.35
2022-07-26T06:57:50.329Z,10.15
2022-07-26T07:00:18.945Z,12.85
2022-07-26T07:02:52.311Z,12.13
2022-07-26T07:05:20.168Z,11.27
2022-07-26T07:07:47.853Z,13.77
2022-07-26T07:10:15.733Z,17.67
2022-07-26T07:12:44.795Z,13.88
2022-07-26T07:15:12.543Z,8.73
2022-07-26T07:17:40.235Z,9.55
2022-07-26T07:20:09.643Z,11.82
2022-07-26T07:22:37.315Z,11.68
2022-07-26T07:25:06.245Z,12.63
2022-07-26T07:27:34.271Z,9.77
2022-07-26T07:30:02.243Z,13.95
2022-07-26T07:32:32.228Z,13.52
2022-07-26T07:34:59.922Z,13.18
2022-07-26T07:37:28.989Z,15.23
2022-07-26T07:40:16.857Z,14.63
2022-07-26T07:42:45.178Z,9.53
2022-07-26T07:45:12.932Z,11.15
2022-07-26T07:47:40.660Z,9.48
2022-07-26T07:50:08.829Z,8.45
2022-07-26T07:52:38.273Z,13.35
2022-07-26T07:55:37.025Z,9.65
2022-07-26T07:57:56.620Z,13.17
2022-07-26T08:00:27.477Z,9.85
2022-07-26T08:02:55.275Z,16.05
2022-07-26T08:05:22.878Z,14.90
2022-07-26T08:07:52.563Z,12.93
2022-07-26T08:10:20.394Z,8.20
2022-07-26T08:12:51.434Z,12.43
2022-07-26T08:15:19.626Z,13.65
2022-07-26T08:17:53.898Z,11.35
2022-07-26T08:20:23.719Z,13.07
2022-07-26T08:22:54.187Z,9.18
2022-07-26T08:25:56.392Z,15.43
2022-07-26T08:28:46.269Z,14.25
2022-07-26T08:31:17.165Z,12.55
2022-07-26T08:33:46.355Z,10.38
2022-07-26T08:36:14.833Z,12.55
2022-07-26T08:38:44.167Z,16.08
2022-07-26T08:41:11.949Z,17.55
2022-07-26T08:43:52.279Z,14.23
2022-07-26T08:46:38.016Z,17.23
2022-07-26T08:49:06.117Z,14.00
2022-07-26T08:51:36.550Z,14.52
2022-07-26T08:54:06.334Z,15.77
2022-07-26T08:56:34.713Z,15.07
2022-07-26T08:59:04.100Z,14.52
2022-07-26T09:03:59.298Z,12.60
2022-07-26T09:06:28.536Z,15.70
2022-07-26T09:08:56.210Z,15.48
2022-07-26T09:11:32.206Z,13.15
2022-07-26T09:14:00.882Z,11.77
2022-07-26T09:16:28.922Z,18.90
2022-07-26T09:18:57.231Z,16.50
2022-07-26T09:21:28.907Z,19.95
2022-07-26T09:23:56.753Z,16.73
2022-07-26T09:29:04.893Z,14.32
2022-07-26T09:31:32.772Z,17.70
2022-07-26T09:34:00.477Z,17.70
2022-07-26T09:36:28.500Z,27.85
2022-07-26T09:38:58.230Z,16.10
2022-07-26T09:41:26.703Z,10.38
2022-07-26T09:43:55.392Z,12.50
2022-07-26T09:46:26.176Z,14.20
2022-07-26T09:49:12.478Z,13.88
2022-07-26T09:51:41.150Z,16.63
2022-07-26T09:54:09.330Z,15.80
2022-07-26T09:56:46.968Z,13.02
2022-07-26T09:59:15.036Z,10.95
2022-07-26T10:01:44.170Z,15.52
2022-07-26T10:04:12.289Z,9.27
2022-07-26T10:06:40.071Z,9.75
2022-07-26T10:09:18.429Z,14.23
2022-07-26T10:11:47.224Z,11.00
2022-07-26T10:14:33.383Z,12.00
2022-07-26T10:17:02.812Z,12.82
2022-07-26T10:19:45.611Z,11.57
2022-07-26T10:22:24.353Z,11.88
2022-07-26T10:24:57.385Z,12.20
2022-07-26T10:27:43.562Z,13.95
2022-07-26T10:30:23.588Z,10.52
2022-07-26T10:33:00.130Z,10.18
2022-07-26T10:35:31.694Z,8.90
2022-07-26T10:37:59.888Z,5.57
2022-07-26T10:40:30.332Z,3.65
2022-07-26T10:43:30.234Z,5.80
2022-07-26T10:46:10.463Z,5.28
2022-07-26T10:48:39.641Z,4.38
2022-07-26T10:51:07.386Z,7.38
2022-07-26T10:53:35.324Z,7.88
2022-07-26T10:56:03.181Z,6.80
2022-07-26T10:58:38.701Z,5.80
2022-07-26T11:01:06.566Z,9.77
2022-07-26T11:03:39.211Z,4.43
2022-07-26T11:06:10.735Z,7.97
2022-07-26T11:08:38.446Z,5.45
2022-07-26T11:11:06.352Z,5.28
2022-07-26T11:13:34.099Z,7.13
2022-07-26T11:16:02.807Z,6.00
2022-07-26T11:18:32.534Z,6.65
2022-07-26T11:23:33.083Z,6.32
2022-07-26T11:26:10.589Z,7.07
2022-07-26T11:28:45.258Z,5.65
2022-07-26T11:31:51.965Z,9.43
2022-07-26T11:34:20.883Z,3.95
2022-07-26T11:36:48.669Z,8.67
2022-07-26T11:39:21.416Z,8.25
2022-07-26T11:41:49.157Z,4.50
2022-07-26T11:44:16.946Z,6.18
2022-07-26T11:46:47.618Z,7.15
2022-07-26T11:49:16.424Z,6.72
2022-07-26T11:51:52.794Z,5.15
2022-07-26T11:54:21.909Z,5.90
2022-07-26T11:56:53.060Z,7.88
2022-07-26T11:59:20.792Z,7.13
2022-07-26T12:01:49.506Z,10.35
2022-07-26T12:06:45.639Z,10.55
2022-07-26T12:09:13.366Z,5.97
2022-07-26T12:11:55.849Z,10.35
2022-07-26T12:14:26.006Z,8.15
2022-07-26T12:16:53.668Z,6.40
2022-07-26T12:19:25.527Z,7.75
2022-07-26T12:21:54.297Z,12.30
2022-07-26T12:24:39.046Z,12.68
2022-07-26T12:27:08.752Z,4.63
2022-07-26T12:29:37.283Z,11.15
2022-07-26T12:32:30.348Z,4.75
2022-07-26T12:34:58.869Z,5.97
2022-07-26T12:37:37.651Z,8.40
2022-07-26T12:40:08.975Z,8.65
2022-07-26T12:42:38.769Z,5.05
2022-07-26T12:45:08.515Z,5.25
2022-07-26T12:47:36.244Z,4.15
2022-07-26T12:50:04.383Z,2.17
2022-07-26T12:52:52.823Z,3.35
2022-07-26T12:55:21.568Z,4.00
2022-07-26T12:57:50.653Z,3.85
2022-07-26T13:00:23.600Z,4.55
2022-07-26T13:02:51.426Z,5.93
2022-07-26T13:05:19.333Z,5.07
2022-07-26T13:07:47.108Z,3.45
2022-07-26T13:10:32.676Z,3.63
2022-07-26T13:13:07.211Z,5.65
2022-07-26T13:15:37.662Z,5.22
2022-07-26T13:18:06.639Z,3.47
2022-07-26T13:20:34.333Z,3.17
2022-07-26T13:23:02.726Z,3.15
2022-07-26T13:25:38.702Z,4.57
2022-07-26T13:28:09.645Z,5.28
2022-07-26T13:30:37.681Z,4.60
2022-07-26T13:33:05.618Z,5.63
2022-07-26T13:35:33.442Z,4.97
2022-07-26T13:38:01.290Z,3.42
2022-07-26T13:40:31.454Z,5.70
2022-07-26T13:42:59.831Z,4.30
2022-07-26T13:45:29.883Z,3.80
2022-07-26T13:47:57.786Z,5.20
2022-07-26T13:50:27.132Z,4.40
2022-07-26T13:52:55.146Z,4.78
2022-07-26T13:55:22.923Z,4.22
2022-07-26T13:57:57.218Z,6.57
2022-07-26T14:00:25.647Z,3.38
2022-07-26T14:02:54.756Z,4.88
2022-07-26T14:05:22.640Z,2.63
2022-07-26T14:07:50.319Z,3.78
2022-07-26T14:10:18.166Z,4.60
2022-07-26T14:12:45.737Z,5.05
2022-07-26T14:15:19.539Z,3.60
2022-07-26T14:17:49.649Z,3.03
2022-07-26T14:20:18.655Z,5.43
2022-07-26T14:22:46.349Z,3.03
2022-07-26T14:25:14.528Z,4.57
2022-07-26T14:27:42.250Z,4.72
2022-07-26T14:30:10.609Z,6.45
2022-07-26T14:32:38.388Z,11.38
2022-07-26T14:35:31.134Z,6.38
2022-07-26T14:38:00.199Z,5.38
2022-07-26T14:42:55.400Z,5.70
2022-07-26T14:45:22.994Z,5.47
2022-07-26T14:47:50.600Z,3.83
2022-07-26T14:50:18.305Z,5.18
2022-07-26T14:52:46.696Z,4.18
2022-07-26T14:55:17.392Z,4.33
2022-07-26T14:57:58.492Z,4.32
2022-07-26T15:00:26.340Z,5.60
2022-07-26T15:02:54.124Z,8.27
2022-07-26T15:05:23.269Z,4.70
2022-07-26T15:07:51.011Z,3.03
2022-07-26T15:10:29.093Z,5.53
2022-07-26T15:12:56.922Z,2.15
2022-07-26T15:15:24.776Z,2.42
2022-07-26T15:17:52.592Z,1.48
2022-07-26T15:20:26.538Z,2.25
2022-07-26T15:22:55.455Z,3.22
2022-07-26T15:25:24.525Z,1.33
2022-07-26T15:27:52.274Z,2.88
2022-07-26T15:30:20.380Z,2.47
2022-07-26T15:32:52.779Z,4.20
2022-07-26T15:35:20.429Z,4.28
2022-07-26T15:37:48.763Z,2.47
2022-07-26T15:40:16.416Z,2.83
2022-07-26T15:42:46.467Z,1.38
2022-07-26T15:45:14.138Z,1.55
2022-07-26T15:48:08.119Z,3.67
2022-07-26T15:50:29.704Z,2.72
2022-07-26T15:52:57.379Z,1.33
2022-07-26T15:55:25.394Z,2.30
2022-07-26T16:00:28.959Z,3.15
2022-07-26T16:02:56.677Z,2.10
2022-07-26T16:05:24.893Z,3.17
2022-07-26T16:07:52.638Z,3.50
2022-07-26T16:10:20.399Z,3.10
2022-07-26T16:12:48.066Z,2.63
2022-07-26T16:15:19.309Z,1.73
2022-07-26T16:17:48.668Z,2.63
2022-07-26T16:20:20.274Z,2.20
2022-07-26T16:22:48.025Z,1.48
2022-07-26T16:25:16.097Z,5.35
2022-07-26T16:27:43.843Z,3.55
2022-07-26T16:30:12.145Z,4.45
2022-07-26T16:32:39.816Z,2.65
2022-07-26T16:35:09.508Z,3.85
2022-07-26T16:37:37.148Z,1.77
2022-07-26T16:40:05.737Z,2.50
2022-07-26T16:42:33.436Z,1.87
2022-07-26T16:45:01.224Z,1.30
2022-07-26T16:47:29.010Z,2.67
2022-07-26T16:49:56.796Z,5.90
2022-07-26T16:52:25.754Z,3.65
2022-07-26T16:54:53.493Z,1.65
2022-07-26T16:57:21.102Z,1.98
2022-07-26T17:00:15.783Z,6.40
2022-07-26T17:02:43.659Z,2.17
2022-07-26T17:05:11.413Z,5.97
2022-07-26T17:07:40.450Z,1.23
2022-07-26T17:10:09.137Z,1.23
2022-07-26T17:12:37.166Z,2.42
2022-07-26T17:15:05.029Z,3.25
2022-07-26T17:17:32.950Z,1.27
2022-07-26T17:20:00.768Z,2.28
2022-07-26T17:22:28.430Z,3.40
2022-07-26T17:24:57.431Z,1.05
2022-07-26T17:27:25.166Z,2.20
2022-07-26T17:29:53.085Z,1.75
2022-07-26T17:32:20.713Z,4.53
2022-07-26T17:34:48.310Z,2.15
2022-07-26T17:37:15.998Z,1.52
2022-07-26T17:39:52.483Z,1.98
2022-07-26T17:42:22.804Z,2.47
2022-07-26T17:44:50.439Z,0.85
2022-07-26T17:47:29.089Z,1.08
2022-07-26T17:50:35.882Z,1.65
2022-07-26T17:53:04.394Z,2.28
2022-07-26T17:55:32.070Z,3.58
2022-07-26T17:58:01.080Z,1.70
2022-07-26T18:00:29.468Z,2.88
2022-07-26T18:02:59.084Z,1.98
2022-07-26T18:05:33.343Z,1.38
2022-07-26T18:08:01.906Z,2.05
2022-07-26T18:10:29.613Z,5.03
2022-07-26T18:12:57.247Z,1.75
2022-07-26T18:15:26.303Z,2.53
2022-07-26T18:17:54.094Z,2.13
2022-07-26T18:20:21.650Z,1.27
2022-07-26T18:22:52.033Z,4.50
2022-07-26T18:25:19.656Z,1.92
2022-07-26T18:27:47.419Z,1.92
2022-07-26T18:30:15.020Z,3.03
2022-07-26T18:32:44.009Z,2.78
2022-07-26T18:35:11.605Z,1.33
2022-07-26T18:37:39.174Z,3.92
2022-07-26T18:40:07.751Z,3.65
2022-07-26T18:42:36.157Z,0.80
2022-07-26T18:45:03.781Z,3.08
2022-07-26T18:47:31.567Z,3.22
2022-07-26T18:50:00.564Z,3.10
2022-07-26T18:52:32.584Z,3.28
2022-07-26T18:55:01.803Z,2.50
2022-07-26T18:57:29.453Z,2.28
2022-07-26T18:59:57.104Z,2.03
2022-07-26T19:02:24.853Z,4.15
2022-07-26T19:04:52.496Z,3.10
2022-07-26T19:07:21.587Z,2.97
2022-07-26T19:09:49.243Z,3.35
2022-07-26T19:12:16.842Z,0.98
2022-07-26T19:14:44.475Z,3.75
2022-07-26T19:17:12.134Z,5.28
2022-07-26T19:19:39.748Z,4.60
2022-07-26T19:22:07.449Z,2.38
2022-07-26T19:24:48.432Z,3.33
2022-07-26T19:27:16.054Z,3.95
2022-07-26T19:29:43.653Z,3.53
2022-07-26T19:32:11.377Z,2.80
2022-07-26T19:34:38.975Z,3.95
2022-07-26T19:37:06.808Z,3.55
2022-07-26T19:39:34.517Z,1.80
2022-07-26T19:42:03.532Z,5.28
2022-07-26T19:44:31.115Z,2.22
2022-07-26T19:46:58.902Z,3.40
2022-07-26T19:49:26.575Z,5.72
2022-07-26T19:51:54.229Z,3.38
2022-07-26T19:54:22.868Z,7.43
2022-07-26T19:56:50.500Z,2.77
2022-07-26T19:59:23.508Z,3.47
2022-07-26T20:01:52.847Z,6.32
2022-07-26T20:04:20.682Z,4.38
2022-07-26T20:06:48.369Z,6.15
2022-07-26T20:09:15.962Z,3.58
2022-07-26T20:11:50.472Z,6.20
2022-07-26T20:14:19.583Z,4.60
2022-07-26T20:16:47.248Z,3.15
2022-07-26T20:19:14.896Z,3.38
2022-07-26T20:21:42.450Z,3.40
2022-07-26T20:24:10.523Z,5.18
2022-07-26T20:27:02.898Z,9.50
2022-07-26T20:29:32.027Z,3.17
2022-07-26T20:31:59.645Z,3.85
2022-07-26T20:34:27.293Z,4.72
2022-07-26T20:36:54.953Z,5.88
2022-07-26T20:39:22.792Z,4.65
2022-07-26T20:41:50.534Z,6.57
2022-07-26T20:44:19.966Z,4.97
2022-07-26T20:47:38.729Z,3.63
2022-07-26T20:50:08.623Z,3.38
2022-07-26T20:52:36.260Z,7.38
2022-07-26T20:55:04.064Z,6.68
2022-07-26T20:57:31.660Z,4.13
2022-07-26T20:59:59.329Z,5.25
2022-07-26T21:02:27.091Z,6.28
2022-07-26T21:04:55.173Z,4.43
2022-07-26T21:07:24.289Z,4.45
2022-07-26T21:10:12.057Z,5.80
2022-07-26T21:12:39.673Z,5.38
2022-07-26T21:15:07.762Z,4.38
2022-07-26T21:17:35.400Z,6.97
2022-07-26T21:20:03.119Z,5.50
2022-07-26T21:22:32.182Z,4.90
2022-07-26T21:24:59.911Z,3.03
2022-07-26T21:27:27.591Z,6.97
2022-07-26T21:29:55.203Z,6.70
2022-07-26T21:32:23.036Z,7.78
2022-07-26T21:34:50.699Z,4.00
2022-07-26T21:37:18.495Z,6.85
2022-07-26T21:39:47.581Z,5.32
2022-07-26T21:42:17.395Z,4.78
2022-07-26T21:44:47.534Z,6.38
2022-07-26T21:47:16.147Z,4.25
2022-07-26T21:49:43.873Z,7.03
2022-07-26T21:52:11.827Z,8.23
2022-07-26T21:54:39.519Z,10.48
2022-07-26T21:57:08.507Z,3.55
2022-07-26T21:59:36.195Z,5.75
2022-07-26T22:02:04.018Z,8.05
2022-07-26T22:04:31.870Z,6.25
2022-07-26T22:06:59.617Z,6.05
2022-07-26T22:09:27.259Z,6.03
2022-07-26T22:11:54.961Z,4.78
2022-07-26T22:14:24.278Z,6.00
2022-07-26T22:16:52.004Z,5.57
2022-07-26T22:19:19.977Z,3.35
2022-07-26T22:21:47.546Z,5.57
2022-07-26T22:24:15.158Z,6.88
2022-07-26T22:26:42.887Z,4.30
2022-07-26T22:29:11.143Z,7.03
2022-07-26T22:31:40.382Z,10.85
2022-07-26T22:34:08.057Z,9.13
2022-07-26T22:36:35.791Z,6.75
2022-07-26T22:39:03.447Z,5.30
2022-07-26T22:41:31.901Z,3.03
2022-07-26T22:44:00.369Z,6.15
2022-07-26T22:46:29.390Z,8.50
2022-07-26T22:48:58.781Z,6.93
2022-07-26T22:51:31.341Z,3.30
2022-07-26T22:53:58.970Z,7.38
2022-07-26T22:56:26.625Z,7.70
2022-07-26T22:58:54.234Z,8.10
2022-07-26T23:01:22.537Z,5.90
2022-07-26T23:03:50.553Z,6.45
2022-07-26T23:06:32.057Z,4.47
2022-07-26T23:09:00.151Z,3.55
2022-07-26T23:11:27.726Z,3.40
2022-07-26T23:13:59.046Z,4.28
2022-07-26T23:16:26.947Z,3.63
2022-07-26T23:18:54.577Z,5.18
2022-07-26T23:21:23.586Z,3.58
2022-07-26T23:23:51.227Z,7.85
2022-07-26T23:26:26.366Z,2.78
2022-07-26T23:28:54.081Z,5.38
2022-07-26T23:31:21.745Z,3.90
2022-07-26T23:33:51.857Z,5.63
2022-07-26T23:36:21.628Z,5.70
2022-07-26T23:38:50.550Z,4.55
2022-07-26T23:41:18.918Z,3.05
2022-07-26T23:43:46.586Z,4.85
2022-07-26T23:46:14.280Z,4.13
2022-07-26T23:48:41.954Z,5.70
2022-07-26T23:51:09.809Z,3.63
2022-07-26T23:53:37.470Z,5.55
2022-07-26T23:56:06.759Z,4.57
2022-07-26T23:58:34.328Z,3.28
